Time,TemperatureF,DewpointF,PressureIn,WindDirection,WindDirectionDegrees,WindSpeedMPH,WindSpeedGustMPH,Humidity,HourlyPrecipIn,Conditions,Clouds,dailyrainin,SolarRadiationWatts/m^2,SoftwareType,DateUTC
2013-10-04 00:01:00,35.1,20.5,30.48,NW,315,0.0,0.0,55,0.00,CLR,,0.00,0.0,WeatherDisplay:10.37,2013-10-03 22:01:00,
2013-10-04 00:06:00,34.9,20.3,30.48,NNW,338,1.2,1.2,55,0.00,CLR,,0.00,0.0,WeatherDisplay:10.37,2013-10-03 22:06:00,
2013-10-04 00:11:00,34.7,20.6,30.48,NNE,22,1.2,0.0,56,0.00,CLR,,0.00,0.0,WeatherDisplay:10.37,2013-10-03 22:11:00,
2013-10-04 00:16:00,34.5,20.8,30.48,WNW,292,3.5,3.5,57,0.00,CLR,,0.00,0.0,WeatherDisplay:10.37,2013-10-03 22:16:00,
2013-10-04 00:21:00,34.5,20.8,30.44,NNW,338,2.3,2.3,57,0.00,CLR,,0.00,0.0,WeatherDisplay:10.37,2013-10-03 22:21:00,
2013-10-04 00:26:00,34.5,20.4,30.44,ESE,112,2.3,2.4,56,0.00,CLR,,0.00,0.0,WeatherDisplay:10.37,2013-10-03 22:26:00,
2013-10-04 00:31:00,34.5,20.8,30.44,NNW,338,2.3,2.3,57,0.00,CLR,,0.00,0.0,WeatherDisplay:10.37,2013-10-03 22:31:00,
2013-10-04 00:36:00,34.5,20.4,30.48,NW,315,2.3,2.3,56,0.00,CLR,,0.00,0.0,WeatherDisplay:10.37,2013-10-03 22:36:00,
2013-10-04 00:41:00,34.7,21.0,30.48,NNW,338,2.3,2.3,57,0.00,CLR,,0.00,0.0,WeatherDisplay:10.37,2013-10-03 22:41:00,
2013-10-04 00:46:00,34.5,20.8,30.48,NW,315,0.0,0.0,57,0.00,CLR,,0.00,0.0,WeatherDisplay:10.37,2013-10-03 22:46:00,
2013-10-04 00:51:00,34.5,20.8,30.48,NW,315,0.0,0.0,57,0.00,CLR,,0.00,0.0,WeatherDisplay:10.37,2013-10-03 22:51:00,
2013-10-04 00:56:00,34.3,20.7,30.48,NW,315,0.0,0.0,57,0.00,CLR,,0.00,0.0,WeatherDisplay:10.37,2013-10-03 22:56:00,
2013-10-04 01:01:00,34.2,20.5,30.48,NW,315,0.0,0.0,57,0.00,CLR,,0.00,0.0,WeatherDisplay:10.37,2013-10-03 23:01:00,
2013-10-04 01:06:00,34.0,20.7,30.48,NW,315,1.2,0.0,58,0.00,CLR,,0.00,0.0,WeatherDisplay:10.37,2013-10-03 23:06:00,
2013-10-04 01:11:00,33.8,20.6,30.48,NW,315,0.0,0.0,58,0.00,CLR,,0.00,0.0,WeatherDisplay:10.37,2013-10-03 23:11:00,
2013-10-04 01:16:00,33.4,20.6,30.48,NW,315,0.0,0.0,59,0.00,CLR,,0.00,0.0,WeatherDisplay:10.37,2013-10-03 23:16:00,
2013-10-04 01:21:00,33.1,20.3,30.48,NW,315,0.0,0.0,59,0.00,CLR,,0.00,0.0,WeatherDisplay:10.37,2013-10-03 23:21:00,
2013-10-04 01:26:00,32.9,20.5,30.48,NW,315,0.0,0.0,60,0.00,CLR,,0.00,0.0,WeatherDisplay:10.37,2013-10-03 23:26:00,
2013-10-04 01:31:00,32.7,20.4,30.48,NW,315,0.0,0.0,60,0.00,CLR,,0.00,0.0,WeatherDisplay:10.37,2013-10-03 23:31:00,
2013-10-04 01:36:00,32.4,20.4,30.44,NW,315,0.0,0.0,61,0.00,CLR,,0.00,0.0,WeatherDisplay:10.37,2013-10-03 23:36:00,
2013-10-04 01:41:00,32.2,20.2,30.44,NW,315,0.0,0.0,61,0.00,CLR,,0.00,0.0,WeatherDisplay:10.37,2013-10-03 23:41:00,
2013-10-04 01:46:00,32.0,20.4,30.44,NW,315,0.0,0.0,62,0.00,CLR,,0.00,0.0,WeatherDisplay:10.37,2013-10-03 23:46:00,
2013-10-04 01:51:00,31.8,20.3,30.48,NW,315,0.0,0.0,62,0.00,CLR,,0.00,0.0,WeatherDisplay:10.37,2013-10-03 23:51:00,
2013-10-04 01:56:00,31.5,19.9,30.48,NW,315,0.0,0.0,62,0.00,CLR,,0.00,0.0,WeatherDisplay:10.37,2013-10-03 23:56:00,
2013-10-04 02:01:00,31.3,20.1,30.48,NW,315,0.0,0.0,63,0.00,CLR,,0.00,0.0,WeatherDisplay:10.37,2013-10-04 00:01:00,
2013-10-04 02:06:00,31.1,20.0,30.48,NW,315,0.0,0.0,63,0.00,CLR,,0.00,0.0,WeatherDisplay:10.37,2013-10-04 00:06:00,
2013-10-04 02:11:00,31.1,20.0,30.48,NW,315,0.0,0.0,63,0.00,CLR,,0.00,0.0,WeatherDisplay:10.37,2013-10-04 00:11:00,
2013-10-04 02:16:00,30.9,20.2,30.48,NW,315,0.0,0.0,64,0.00,CLR,,0.00,0.0,WeatherDisplay:10.37,2013-10-04 00:16:00,
2013-10-04 02:21:00,30.9,20.2,30.48,NE,45,1.6,0.0,64,0.00,CLR,,0.00,0.0,WeatherDisplay:10.37,2013-10-04 00:21:00,
2013-10-04 02:26:00,30.7,20.0,30.48,NNE,22,1.2,1.4,64,0.00,CLR,,0.00,0.0,WeatherDisplay:10.37,2013-10-04 00:26:00,
2013-10-04 02:31:00,30.7,20.0,30.48,NNE,22,2.3,2.3,64,0.00,CLR,,0.00,0.0,WeatherDisplay:10.37,2013-10-04 00:31:00,
2013-10-04 02:36:00,30.7,20.0,30.48,NNE,22,2.3,2.3,64,0.00,CLR,,0.00,0.0,WeatherDisplay:10.37,2013-10-04 00:36:00,
2013-10-04 02:41:00,30.7,20.0,30.48,NNE,22,1.2,0.0,64,0.00,CLR,,0.00,0.0,WeatherDisplay:10.37,2013-10-04 00:41:00,
2013-10-04 02:46:00,30.7,20.0,30.48,NNW,338,1.2,1.2,64,0.00,CLR,,0.00,0.0,WeatherDisplay:10.37,2013-10-04 00:46:00,
2013-10-04 02:51:00,30.7,20.0,30.44,NNW,338,0.0,0.0,64,0.00,CLR,,0.00,0.0,WeatherDisplay:10.37,2013-10-04 00:51:00,
2013-10-04 02:56:00,30.9,20.2,30.44,NNW,338,0.0,0.0,64,0.00,CLR,,0.00,0.0,WeatherDisplay:10.37,2013-10-04 00:56:00,
2013-10-04 03:01:00,30.9,20.5,30.44,NNW,338,0.0,0.0,65,0.00,CLR,,0.00,0.0,WeatherDisplay:10.37,2013-10-04 01:01:00,
2013-10-04 03:06:00,30.9,20.5,30.48,NNW,338,0.0,0.0,65,0.00,CLR,,0.00,0.0,WeatherDisplay:10.37,2013-10-04 01:06:00,
2013-10-04 03:11:00,30.9,20.5,30.48,NNW,338,0.0,0.0,65,0.00,CLR,,0.00,0.0,WeatherDisplay:10.37,2013-10-04 01:11:00,
2013-10-04 03:16:00,30.9,20.9,30.48,NNW,338,0.0,0.0,66,0.00,CLR,,0.00,0.0,WeatherDisplay:10.37,2013-10-04 01:16:00,
2013-10-04 03:21:00,30.9,20.9,30.48,NNW,338,0.0,0.0,66,0.00,CLR,,0.00,0.0,WeatherDisplay:10.37,2013-10-04 01:21:00,
2013-10-04 03:26:00,30.9,20.9,30.48,North,0,0.0,0.0,66,0.00,CLR,,0.00,0.0,WeatherDisplay:10.37,2013-10-04 01:26:00,
2013-10-04 03:31:00,30.7,20.7,30.48,NNW,338,0.0,0.0,66,0.00,CLR,,0.00,0.0,WeatherDisplay:10.37,2013-10-04 01:31:00,
2013-10-04 03:36:00,30.7,20.7,30.48,NNW,338,0.0,0.0,66,0.00,CLR,,0.00,0.0,WeatherDisplay:10.37,2013-10-04 01:36:00,
2013-10-04 03:41:00,30.6,20.9,30.48,NNW,338,0.0,0.0,67,0.00,CLR,,0.00,0.0,WeatherDisplay:10.37,2013-10-04 01:41:00,
2013-10-04 03:46:00,30.6,20.9,30.48,NNW,338,0.0,0.0,67,0.00,CLR,,0.00,0.0,WeatherDisplay:10.37,2013-10-04 01:46:00,
2013-10-04 03:51:00,30.6,20.9,30.48,NNW,338,0.0,0.0,67,0.00,CLR,,0.00,0.0,WeatherDisplay:10.37,2013-10-04 01:51:00,
2013-10-04 03:56:00,30.4,20.7,30.48,North,0,0.0,0.0,67,0.00,CLR,,0.00,0.0,WeatherDisplay:10.37,2013-10-04 01:56:00,
2013-10-04 04:01:00,30.4,20.7,30.48,North,0,0.0,0.0,67,0.00,CLR,,0.00,0.0,WeatherDisplay:10.37,2013-10-04 02:01:00,
2013-10-04 04:06:00,30.2,20.9,30.48,NNE,22,0.0,0.0,68,0.00,CLR,,0.00,0.0,WeatherDisplay:10.37,2013-10-04 02:06:00,
2013-10-04 04:11:00,30.2,20.9,30.48,NE,45,0.0,0.0,68,0.00,CLR,,0.00,0.0,WeatherDisplay:10.37,2013-10-04 02:11:00,
2013-10-04 04:16:00,30.2,21.2,30.48,NNE,22,0.0,0.0,69,0.00,CLR,,0.00,0.0,WeatherDisplay:10.37,2013-10-04 02:16:00,
2013-10-04 04:21:00,30.4,21.1,30.48,NE,45,0.0,0.0,68,0.00,CLR,,0.00,0.0,WeatherDisplay:10.37,2013-10-04 02:21:00,
2013-10-04 04:26:00,30.4,21.1,30.48,NNE,22,0.0,0.0,68,0.00,CLR,,0.00,0.0,WeatherDisplay:10.37,2013-10-04 02:26:00,
2013-10-04 04:31:00,30.4,21.4,30.48,NNE,22,0.0,0.0,69,0.00,CLR,,0.00,0.0,WeatherDisplay:10.37,2013-10-04 02:31:00,
2013-10-04 04:36:00,30.4,21.1,30.48,NNW,338,0.0,0.0,68,0.00,CLR,,0.00,0.0,WeatherDisplay:10.37,2013-10-04 02:36:00,
2013-10-04 04:41:00,30.6,21.6,30.48,NNW,338,0.0,0.0,69,0.00,CLR,,0.00,0.0,WeatherDisplay:10.37,2013-10-04 02:41:00,
2013-10-04 04:46:00,30.6,21.2,30.48,NNW,338,0.0,0.0,68,0.00,CLR,,0.00,0.0,WeatherDisplay:10.37,2013-10-04 02:46:00,
2013-10-04 04:51:00,30.7,21.1,30.48,NNW,338,0.0,0.0,67,0.00,CLR,,0.00,0.0,WeatherDisplay:10.37,2013-10-04 02:51:00,
2013-10-04 04:56:00,30.6,20.9,30.48,NNW,338,0.0,0.0,67,0.00,CLR,,0.00,0.0,WeatherDisplay:10.37,2013-10-04 02:56:00,
2013-10-04 05:01:00,30.6,21.2,30.48,NNW,338,0.0,0.0,68,0.00,CLR,,0.00,0.0,WeatherDisplay:10.37,2013-10-04 03:01:00,
2013-10-04 05:06:00,30.6,21.2,30.48,NNW,338,0.0,0.0,68,0.00,CLR,,0.00,0.0,WeatherDisplay:10.37,2013-10-04 03:06:00,
2013-10-04 05:11:00,30.4,21.1,30.48,NNW,338,0.0,0.0,68,0.00,CLR,,0.00,0.0,WeatherDisplay:10.37,2013-10-04 03:11:00,
2013-10-04 05:16:00,30.2,20.9,30.48,NW,315,0.0,0.0,68,0.00,CLR,,0.00,0.0,WeatherDisplay:10.37,2013-10-04 03:16:00,
2013-10-04 05:21:00,30.2,20.9,30.48,NW,315,0.0,0.0,68,0.00,CLR,,0.00,0.0,WeatherDisplay:10.37,2013-10-04 03:21:00,
2013-10-04 05:26:00,30.2,21.2,30.48,NW,315,0.0,0.0,69,0.00,CLR,,0.00,0.0,WeatherDisplay:10.37,2013-10-04 03:26:00,
2013-10-04 05:31:00,30.0,21.1,30.48,NW,315,0.0,0.0,69,0.00,CLR,,0.00,0.0,WeatherDisplay:10.37,2013-10-04 03:31:00,
2013-10-04 05:36:00,30.0,21.1,30.48,NW,315,0.0,0.0,69,0.00,CLR,,0.00,0.0,WeatherDisplay:10.37,2013-10-04 03:36:00,
2013-10-04 05:41:00,29.8,21.2,30.48,NW,315,0.0,0.0,70,0.00,CLR,,0.00,0.0,WeatherDisplay:10.37,2013-10-04 03:41:00,
2013-10-04 05:46:00,29.8,21.2,30.48,NNW,338,0.0,0.0,70,0.00,CLR,,0.00,0.0,WeatherDisplay:10.37,2013-10-04 03:46:00,
2013-10-04 05:51:00,29.7,21.1,30.48,NNW,338,0.0,0.0,70,0.00,CLR,,0.00,0.0,WeatherDisplay:10.37,2013-10-04 03:51:00,
2013-10-04 05:56:00,29.7,21.1,30.48,NNW,338,1.2,0.0,70,0.00,CLR,,0.00,0.0,WeatherDisplay:10.37,2013-10-04 03:56:00,
2013-10-04 06:31:00,29.7,21.4,30.48,WNW,292,2.3,2.3,71,0.00,OVC,,0.00,0.0,WeatherDisplay:10.37,2013-10-04 04:31:00,
2013-10-04 06:32:00,29.7,21.4,30.48,WNW,292,2.3,2.3,71,0.00,OVC,,0.00,0.0,WeatherDisplay:10.37,2013-10-04 04:32:00,
2013-10-04 06:35:00,29.7,21.4,30.48,NNE,22,1.2,0.0,71,0.00,OVC,,0.00,0.0,WeatherDisplay:10.37,2013-10-04 04:35:00,
2013-10-04 06:36:00,29.7,21.4,30.48,NNW,338,0.0,0.0,71,0.00,OVC,,0.00,0.0,WeatherDisplay:10.37,2013-10-04 04:36:00,
2013-10-04 06:37:00,29.7,21.4,30.48,NNW,338,0.0,0.0,71,0.00,OVC,,0.00,0.0,WeatherDisplay:10.37,2013-10-04 04:37:00,
2013-10-04 06:38:00,29.7,21.4,30.48,NNE,22,1.4,0.0,71,0.00,OVC,,0.00,0.0,WeatherDisplay:10.37,2013-10-04 04:38:00,
2013-10-04 06:43:00,29.5,21.2,30.48,NW,315,1.2,0.0,71,0.00,OVC,,0.00,0.0,WeatherDisplay:10.37,2013-10-04 04:43:00,
2013-10-04 06:44:00,29.5,21.6,30.48,NNW,338,3.5,3.5,72,0.00,OVC,,0.00,0.0,WeatherDisplay:10.37,2013-10-04 04:44:00,
2013-10-04 06:45:00,29.5,21.6,30.48,NNW,338,2.3,2.3,72,0.00,OVC,,0.00,0.0,WeatherDisplay:10.37,2013-10-04 04:45:00,
2013-10-04 06:46:00,29.5,21.6,30.48,NNW,338,0.0,0.0,72,0.00,OVC,,0.00,0.0,WeatherDisplay:10.37,2013-10-04 04:46:00,
2013-10-04 06:48:00,29.5,21.2,30.48,NNW,338,1.2,0.0,71,0.00,OVC,,0.00,0.0,WeatherDisplay:10.37,2013-10-04 04:48:00,
2013-10-04 06:49:00,29.5,21.2,30.48,NNW,338,0.0,0.0,71,0.00,OVC,,0.00,0.0,WeatherDisplay:10.37,2013-10-04 04:49:00,
2013-10-04 06:50:00,29.5,21.2,30.48,NNW,338,0.0,0.0,71,0.00,OVC,,0.00,0.0,WeatherDisplay:10.37,2013-10-04 04:50:00,
2013-10-04 06:52:00,29.5,21.6,30.48,NNW,338,0.0,0.0,72,0.00,OVC,,0.00,0.0,WeatherDisplay:10.37,2013-10-04 04:52:00,
2013-10-04 06:57:00,29.7,21.7,30.48,NNW,338,1.4,1.4,72,0.00,OVC,,0.00,0.0,WeatherDisplay:10.37,2013-10-04 04:57:00,
2013-10-04 07:00:00,29.8,21.9,30.48,WNW,292,1.2,1.2,72,0.00,OVC,,0.00,0.0,WeatherDisplay:10.37,2013-10-04 05:00:00,
2013-10-04 07:01:00,29.8,21.9,30.48,WNW,292,0.0,0.0,72,0.00,OVC,,0.00,0.0,WeatherDisplay:10.37,2013-10-04 05:01:00,
2013-10-04 07:02:00,29.8,21.9,30.48,WNW,292,1.2,0.0,72,0.00,OVC,,0.00,0.0,WeatherDisplay:10.37,2013-10-04 05:02:00,
2013-10-04 07:03:00,30.0,22.1,30.48,NNW,338,1.4,0.0,72,0.00,OVC,,0.00,0.0,WeatherDisplay:10.37,2013-10-04 05:03:00,
2013-10-04 07:05:00,30.2,22.3,30.48,NW,315,2.3,2.3,72,0.00,OVC,,0.00,1.0,WeatherDisplay:10.37,2013-10-04 05:05:00,
2013-10-04 07:06:00,30.2,22.3,30.48,NNW,338,1.4,1.4,72,0.00,OVC,,0.00,2.0,WeatherDisplay:10.37,2013-10-04 05:06:00,
2013-10-04 07:09:00,30.6,22.6,30.48,WNW,292,2.3,2.3,72,0.00,OVC,,0.00,3.5,WeatherDisplay:10.37,2013-10-04 05:09:00,
2013-10-04 07:11:00,30.6,22.6,30.48,WNW,292,2.4,2.4,72,0.00,OVC,,0.00,4.6,WeatherDisplay:10.37,2013-10-04 05:11:00,
2013-10-04 07:15:00,30.7,22.4,30.48,WNW,292,2.3,0.0,71,0.00,OVC,,0.00,6.1,WeatherDisplay:10.37,2013-10-04 05:15:00,
2013-10-04 07:17:00,30.9,22.6,30.48,NW,315,1.2,1.2,71,0.00,OVC,,0.00,7.6,WeatherDisplay:10.37,2013-10-04 05:17:00,
2013-10-04 07:19:00,31.1,22.8,30.48,NW,315,0.0,0.0,71,0.00,OVC,,0.00,8.7,WeatherDisplay:10.37,2013-10-04 05:19:00,
2013-10-04 07:25:00,31.1,22.8,30.48,NW,315,1.2,0.0,71,0.00,OVC,,0.00,11.4,WeatherDisplay:10.37,2013-10-04 05:25:00,
2013-10-04 07:26:00,31.1,22.8,30.48,NW,315,2.3,2.3,71,0.00,OVC,,0.00,12.4,WeatherDisplay:10.37,2013-10-04 05:26:00,
2013-10-04 07:31:00,31.1,22.8,30.48,NNW,338,2.3,2.3,71,0.00,OVC,,0.00,15.0,WeatherDisplay:10.37,2013-10-04 05:31:00,
2013-10-04 07:36:00,31.3,23.0,30.48,NNW,338,1.4,1.6,71,0.00,OVC,,0.00,17.7,WeatherDisplay:10.37,2013-10-04 05:36:00,
2013-10-04 07:41:00,31.6,23.3,30.48,NNW,338,0.0,0.0,71,0.00,OVC,,0.00,20.3,WeatherDisplay:10.37,2013-10-04 05:41:00,
2013-10-04 07:46:00,32.2,23.8,30.48,North,0,1.2,0.0,71,0.00,OVC,,0.00,22.9,WeatherDisplay:10.37,2013-10-04 05:46:00,
2013-10-04 07:51:00,32.5,24.2,30.48,NNE,22,1.2,0.0,71,0.00,OVC,,0.00,25.6,WeatherDisplay:10.37,2013-10-04 05:51:00,
2013-10-04 07:56:00,33.3,24.5,30.48,NE,45,2.0,2.0,70,0.00,OVC,,0.00,28.2,WeatherDisplay:10.37,2013-10-04 05:56:00,
2013-10-04 08:01:00,33.6,24.5,30.48,ENE,68,0.0,0.9,69,0.00,OVC,,0.00,30.7,WeatherDisplay:10.37,2013-10-04 06:01:00,
2013-10-04 08:06:00,34.2,24.3,30.48,WNW,292,0.0,0.0,67,0.00,OVC,,0.00,33.3,WeatherDisplay:10.37,2013-10-04 06:06:00,
2013-10-04 08:11:00,34.7,24.5,30.48,WNW,292,0.0,0.0,66,0.00,OVC,,0.00,36.0,WeatherDisplay:10.37,2013-10-04 06:11:00,
2013-10-04 08:16:00,35.4,25.2,30.48,ENE,68,2.3,2.4,66,0.00,OVC,,0.00,38.6,WeatherDisplay:10.37,2013-10-04 06:16:00,
2013-10-04 08:21:00,35.8,24.8,30.48,East,90,1.6,1.6,64,0.00,OVC,,0.00,41.3,WeatherDisplay:10.37,2013-10-04 06:21:00,
2013-10-04 08:26:00,36.3,24.9,30.48,North,0,4.6,4.6,63,0.00,OVC,,0.00,43.9,WeatherDisplay:10.37,2013-10-04 06:26:00,
2013-10-04 08:31:00,37.0,25.6,30.48,NNE,22,3.5,3.5,63,0.00,OVC,,0.00,46.5,WeatherDisplay:10.37,2013-10-04 06:31:00,
2013-10-04 08:36:00,37.6,25.3,30.48,ESE,112,2.6,2.6,61,0.00,OVC,,0.00,49.0,WeatherDisplay:10.37,2013-10-04 06:36:00,
2013-10-04 08:41:00,38.1,25.4,30.48,ENE,68,2.3,2.3,60,0.00,OVC,,0.00,51.6,WeatherDisplay:10.37,2013-10-04 06:41:00,
2013-10-04 08:46:00,38.7,26.0,30.48,SSE,158,4.6,4.6,60,0.00,OVC,,0.00,54.1,WeatherDisplay:10.37,2013-10-04 06:46:00,
2013-10-04 08:51:00,39.2,25.6,30.48,ENE,68,6.9,6.9,58,0.00,OVC,,0.00,56.8,WeatherDisplay:10.37,2013-10-04 06:51:00,
2013-10-04 08:56:00,39.4,25.4,30.48,SSE,158,6.9,6.9,57,0.00,OVC,,0.00,59.2,WeatherDisplay:10.37,2013-10-04 06:56:00,
2013-10-04 09:01:00,39.7,25.7,30.48,SSE,158,5.8,5.8,57,0.00,OVC,,0.00,61.7,WeatherDisplay:10.37,2013-10-04 07:01:00,
2013-10-04 09:06:00,40.1,26.1,30.48,SE,135,3.5,3.5,57,0.00,OVC,,0.00,64.2,WeatherDisplay:10.37,2013-10-04 07:06:00,
2013-10-04 09:11:00,40.5,26.4,30.48,ESE,112,5.8,5.8,57,0.00,OVC,,0.00,66.7,WeatherDisplay:10.37,2013-10-04 07:11:00,
2013-10-04 09:16:00,40.6,26.2,30.48,ESE,112,6.0,6.0,56,0.00,OVC,,0.00,69.0,WeatherDisplay:10.37,2013-10-04 07:16:00,
2013-10-04 09:21:00,41.0,25.6,30.48,SSE,158,5.8,5.8,54,0.00,OVC,,0.00,71.4,WeatherDisplay:10.37,2013-10-04 07:21:00,
2013-10-04 09:26:00,41.2,25.8,30.48,SSE,158,5.8,5.8,54,0.00,OVC,,0.00,73.8,WeatherDisplay:10.37,2013-10-04 07:26:00,
2013-10-04 09:31:00,41.5,26.1,30.48,ESE,112,6.9,6.9,54,0.00,OVC,,0.00,76.1,WeatherDisplay:10.37,2013-10-04 07:31:00,
2013-10-04 09:36:00,41.7,26.3,30.50,NNE,22,2.3,2.4,54,0.00,OVC,,0.00,78.4,WeatherDisplay:10.37,2013-10-04 07:36:00,
2013-10-04 09:41:00,42.1,26.6,30.50,NW,315,4.6,4.6,54,0.00,OVC,,0.00,80.7,WeatherDisplay:10.37,2013-10-04 07:41:00,
2013-10-04 09:46:00,42.3,26.3,30.50,ESE,112,6.9,6.9,53,0.00,OVC,,0.00,83.0,WeatherDisplay:10.37,2013-10-04 07:46:00,
2013-10-04 09:51:00,42.4,27.0,30.50,ESE,112,3.5,3.5,54,0.00,OVC,,0.00,85.1,WeatherDisplay:10.37,2013-10-04 07:51:00,
2013-10-04 09:56:00,42.8,26.8,30.50,SSE,158,4.6,4.6,53,0.00,OVC,,0.00,87.3,WeatherDisplay:10.37,2013-10-04 07:56:00,
2013-10-04 10:01:00,42.8,26.8,30.50,SSE,158,3.5,3.5,53,0.00,OVC,,0.00,89.3,WeatherDisplay:10.37,2013-10-04 08:01:00,
2013-10-04 10:06:00,43.0,26.5,30.50,North,0,4.7,4.7,52,0.00,OVC,,0.00,91.4,WeatherDisplay:10.37,2013-10-04 08:06:00,
2013-10-04 10:11:00,43.2,26.7,30.50,ENE,68,4.6,4.6,52,0.00,OVC,,0.00,93.4,WeatherDisplay:10.37,2013-10-04 08:11:00,
2013-10-04 10:16:00,43.3,26.9,30.50,WNW,292,3.5,3.5,52,0.00,OVC,,0.00,95.4,WeatherDisplay:10.37,2013-10-04 08:16:00,
2013-10-04 10:21:00,43.5,26.6,30.50,ESE,112,6.0,6.0,51,0.00,OVC,,0.00,97.3,WeatherDisplay:10.37,2013-10-04 08:21:00,
2013-10-04 10:26:00,43.7,26.7,30.50,NNW,338,5.8,5.8,51,0.00,OVC,,0.00,99.2,WeatherDisplay:10.37,2013-10-04 08:26:00,
2013-10-04 10:31:00,44.1,27.1,30.50,NNW,338,5.8,5.8,51,0.00,OVC,,0.00,101.0,WeatherDisplay:10.37,2013-10-04 08:31:00,
2013-10-04 10:36:00,44.4,26.9,30.50,ESE,112,3.5,3.5,50,0.00,OVC,,0.00,102.8,WeatherDisplay:10.37,2013-10-04 08:36:00,
2013-10-04 10:41:00,44.4,26.9,30.50,WSW,248,5.8,5.8,50,0.00,OVC,,0.00,104.6,WeatherDisplay:10.37,2013-10-04 08:41:00,
2013-10-04 10:46:00,44.4,26.9,30.50,ESE,112,4.6,4.6,50,0.00,OVC,,0.00,106.3,WeatherDisplay:10.37,2013-10-04 08:46:00,
2013-10-04 10:51:00,44.6,26.6,30.50,SSE,158,3.5,3.5,49,0.00,OVC,,0.00,107.7,WeatherDisplay:10.37,2013-10-04 08:51:00,
2013-10-04 10:56:00,44.6,26.6,30.50,SE,135,5.8,5.8,49,0.00,OVC,,0.00,109.4,WeatherDisplay:10.37,2013-10-04 08:56:00,
2013-10-04 11:01:00,44.8,26.8,30.50,WNW,292,3.5,3.5,49,0.00,OVC,,0.00,110.9,WeatherDisplay:10.37,2013-10-04 09:01:00,
2013-10-04 11:06:00,45.1,27.1,30.50,SSE,158,2.3,2.3,49,0.00,OVC,,0.00,112.2,WeatherDisplay:10.37,2013-10-04 09:06:00,
2013-10-04 11:11:00,45.3,27.3,30.50,SSW,202,5.4,5.4,49,0.00,OVC,,0.00,113.7,WeatherDisplay:10.37,2013-10-04 09:11:00,
2013-10-04 11:16:00,45.5,27.4,30.50,ESE,112,3.5,3.5,49,0.00,OVC,,0.00,115.0,WeatherDisplay:10.37,2013-10-04 09:16:00,
2013-10-04 11:21:00,45.7,27.1,30.48,WNW,292,2.3,2.3,48,0.00,OVC,,0.00,116.2,WeatherDisplay:10.37,2013-10-04 09:21:00,
2013-10-04 11:26:00,45.9,27.3,30.48,SW,225,4.6,4.6,48,0.00,OVC,,0.00,117.3,WeatherDisplay:10.37,2013-10-04 09:26:00,
2013-10-04 11:31:00,46.0,27.4,30.48,NNW,338,2.3,2.3,48,0.00,OVC,,0.00,118.5,WeatherDisplay:10.37,2013-10-04 09:31:00,
2013-10-04 11:36:00,46.0,27.4,30.50,SSE,158,3.5,3.5,48,0.00,OVC,,0.00,119.6,WeatherDisplay:10.37,2013-10-04 09:36:00,
2013-10-04 11:41:00,46.0,27.4,30.50,SSW,202,8.1,8.1,48,0.00,OVC,,0.00,120.6,WeatherDisplay:10.37,2013-10-04 09:41:00,
2013-10-04 11:46:00,46.2,27.6,30.50,NNE,22,4.6,4.6,48,0.00,OVC,,0.00,121.4,WeatherDisplay:10.37,2013-10-04 09:46:00,
2013-10-04 11:51:00,46.0,26.9,30.50,SSE,158,2.3,2.4,47,0.00,OVC,,0.00,122.4,WeatherDisplay:10.37,2013-10-04 09:51:00,
2013-10-04 11:56:00,46.2,27.1,30.50,SSW,202,2.6,2.6,47,0.00,OVC,,0.00,123.1,WeatherDisplay:10.37,2013-10-04 09:56:00,
2013-10-04 12:01:00,46.2,27.6,30.50,NNW,338,3.6,3.6,48,0.00,OVC,,0.00,123.8,WeatherDisplay:10.37,2013-10-04 10:01:00,
2013-10-04 12:06:00,46.4,27.2,30.48,SSW,202,4.6,4.6,47,0.00,OVC,,0.00,124.4,WeatherDisplay:10.37,2013-10-04 10:06:00,
2013-10-04 12:11:00,46.6,27.4,30.48,SSW,202,2.3,2.3,47,0.00,OVC,,0.00,125.1,WeatherDisplay:10.37,2013-10-04 10:11:00,
2013-10-04 12:16:00,46.8,27.6,30.48,ESE,112,2.3,2.3,47,0.00,OVC,,0.00,125.6,WeatherDisplay:10.37,2013-10-04 10:16:00,
2013-10-04 12:21:00,46.9,27.7,30.48,NNE,22,4.6,4.6,47,0.00,OVC,,0.00,126.1,WeatherDisplay:10.37,2013-10-04 10:21:00,
2013-10-04 12:26:00,47.1,27.4,30.48,ESE,112,5.8,5.8,46,0.00,OVC,,0.00,126.4,WeatherDisplay:10.37,2013-10-04 10:26:00,
2013-10-04 12:31:00,47.3,27.5,30.48,ENE,68,2.3,2.3,46,0.00,OVC,,0.00,126.7,WeatherDisplay:10.37,2013-10-04 10:31:00,
2013-10-04 12:36:00,47.7,27.9,30.48,East,90,5.9,5.9,46,0.00,OVC,,0.00,126.9,WeatherDisplay:10.37,2013-10-04 10:36:00,
2013-10-04 12:41:00,47.7,27.9,30.48,ESE,112,4.6,4.6,46,0.00,OVC,,0.00,127.0,WeatherDisplay:10.37,2013-10-04 10:41:00,
2013-10-04 12:46:00,47.8,28.0,30.48,East,90,4.9,4.9,46,0.00,OVC,,0.00,127.0,WeatherDisplay:10.37,2013-10-04 10:46:00,
2013-10-04 12:51:00,47.8,27.5,30.48,ENE,68,2.9,3.3,45,0.00,OVC,,0.00,127.0,WeatherDisplay:10.37,2013-10-04 10:51:00,
2013-10-04 12:56:00,47.8,27.5,30.48,NNE,22,3.5,4.0,45,0.00,OVC,,0.00,127.0,WeatherDisplay:10.37,2013-10-04 10:56:00,
2013-10-04 13:01:00,47.8,26.4,30.48,WNW,292,4.6,4.6,43,0.00,OVC,,0.00,126.9,WeatherDisplay:10.37,2013-10-04 11:01:00,
2013-10-04 13:06:00,48.0,27.1,30.48,ESE,112,4.6,4.6,44,0.00,OVC,,0.00,126.7,WeatherDisplay:10.37,2013-10-04 11:06:00,
2013-10-04 13:11:00,48.0,26.6,30.48,West,270,3.5,3.5,43,0.00,OVC,,0.00,126.4,WeatherDisplay:10.37,2013-10-04 11:11:00,
2013-10-04 13:16:00,48.0,26.0,30.48,NNW,338,3.5,3.5,42,0.00,OVC,,0.00,126.1,WeatherDisplay:10.37,2013-10-04 11:16:00,
2013-10-04 13:21:00,48.2,26.7,30.48,NNW,338,3.5,3.5,43,0.00,OVC,,0.00,125.6,WeatherDisplay:10.37,2013-10-04 11:21:00,
2013-10-04 13:26:00,48.2,26.7,30.48,ENE,68,6.9,6.9,43,0.00,OVC,,0.00,125.1,WeatherDisplay:10.37,2013-10-04 11:26:00,
2013-10-04 13:31:00,48.4,26.9,30.48,WSW,248,2.9,2.9,43,0.00,OVC,,0.00,124.6,WeatherDisplay:10.37,2013-10-04 11:31:00,
2013-10-04 13:36:00,48.4,26.3,30.48,SSW,202,4.6,4.6,42,0.00,OVC,,0.00,123.9,WeatherDisplay:10.37,2013-10-04 11:36:00,
2013-10-04 13:41:00,48.4,26.9,30.48,SSW,202,3.5,3.5,43,0.00,OVC,,0.00,123.3,WeatherDisplay:10.37,2013-10-04 11:41:00,
2013-10-04 13:46:00,48.7,26.6,30.48,NNE,22,2.6,2.6,42,0.00,OVC,,0.00,122.4,WeatherDisplay:10.37,2013-10-04 11:46:00,
2013-10-04 13:51:00,48.7,27.2,30.48,SSW,202,5.8,5.8,43,0.00,OVC,,0.00,121.6,WeatherDisplay:10.37,2013-10-04 11:51:00,
2013-10-04 13:56:00,48.9,27.4,30.48,ESE,112,4.6,4.6,43,0.00,OVC,,0.00,120.6,WeatherDisplay:10.37,2013-10-04 11:56:00,
2013-10-04 14:01:00,49.1,27.0,30.48,SSE,158,2.6,2.6,42,0.00,OVC,,0.00,119.6,WeatherDisplay:10.37,2013-10-04 12:01:00,
2013-10-04 14:06:00,49.3,27.1,30.44,SSW,202,3.5,3.5,42,0.00,OVC,,0.00,118.6,WeatherDisplay:10.37,2013-10-04 12:06:00,
2013-10-04 14:11:00,49.5,27.9,30.44,NW,315,2.3,2.3,43,0.00,OVC,,0.00,117.5,WeatherDisplay:10.37,2013-10-04 12:11:00,
2013-10-04 14:16:00,49.6,27.5,30.44,ESE,112,4.6,4.6,42,0.00,OVC,,0.00,116.3,WeatherDisplay:10.37,2013-10-04 12:16:00,
2013-10-04 14:21:00,49.8,27.6,30.44,NNW,338,4.9,4.9,42,0.00,OVC,,0.00,115.0,WeatherDisplay:10.37,2013-10-04 12:21:00,
2013-10-04 14:26:00,49.8,27.6,30.44,SSW,202,4.6,4.6,42,0.00,OVC,,0.00,113.7,WeatherDisplay:10.37,2013-10-04 12:26:00,
2013-10-04 14:31:00,50.0,26.6,30.44,SSW,202,2.6,2.6,40,0.00,OVC,,0.00,112.4,WeatherDisplay:10.37,2013-10-04 12:31:00,
2013-10-04 14:36:00,50.2,27.4,30.44,WSW,248,3.5,3.5,41,0.00,OVC,,0.00,110.9,WeatherDisplay:10.37,2013-10-04 12:36:00,
2013-10-04 14:41:00,50.4,27.5,30.44,ESE,112,6.2,6.2,41,0.00,OVC,,0.00,109.4,WeatherDisplay:10.37,2013-10-04 12:41:00,
2013-10-04 14:46:00,50.9,28.6,30.44,SSW,202,3.5,3.5,42,0.00,OVC,,0.00,107.9,WeatherDisplay:10.37,2013-10-04 12:46:00,
2013-10-04 14:51:00,51.4,28.5,30.42,SSE,158,2.3,2.3,41,0.00,OVC,,0.00,106.3,WeatherDisplay:10.37,2013-10-04 12:51:00,
2013-10-04 14:56:00,51.8,28.2,30.42,NNE,22,4.3,4.3,40,0.00,OVC,,0.00,104.6,WeatherDisplay:10.37,2013-10-04 12:56:00,
2013-10-04 15:01:00,51.6,28.1,30.42,ENE,68,3.5,3.5,40,0.00,OVC,,0.00,103.0,WeatherDisplay:10.37,2013-10-04 13:01:00,
2013-10-04 15:06:00,51.6,28.1,30.42,NNW,338,2.3,2.3,40,0.00,OVC,,0.00,101.1,WeatherDisplay:10.37,2013-10-04 13:06:00,
2013-10-04 15:11:00,51.4,27.9,30.42,ENE,68,6.9,6.9,40,0.00,OVC,,0.00,99.3,WeatherDisplay:10.37,2013-10-04 13:11:00,
2013-10-04 15:16:00,52.0,28.4,30.42,South,180,3.5,3.5,40,0.00,OVC,,0.00,97.5,WeatherDisplay:10.37,2013-10-04 13:16:00,
2013-10-04 15:21:00,53.1,29.4,30.42,SSW,202,2.3,2.3,40,0.00,OVC,,0.00,95.5,WeatherDisplay:10.37,2013-10-04 13:21:00,
2013-10-04 15:26:00,54.5,30.0,30.42,WSW,248,1.2,1.2,39,0.00,OVC,,0.00,93.6,WeatherDisplay:10.37,2013-10-04 13:26:00,
2013-10-04 15:31:00,55.4,30.8,30.42,ENE,68,2.3,2.3,39,0.00,OVC,,0.00,91.6,WeatherDisplay:10.37,2013-10-04 13:31:00,
2013-10-04 15:36:00,54.5,29.4,30.44,NNW,338,3.5,0.0,38,0.00,OVC,,0.00,89.4,WeatherDisplay:10.37,2013-10-04 13:36:00,
2013-10-04 15:41:00,54.1,29.1,30.44,WNW,292,2.4,2.4,38,0.00,OVC,,0.00,87.5,WeatherDisplay:10.37,2013-10-04 13:41:00,
2013-10-04 15:46:00,53.2,28.3,30.44,WNW,292,2.0,0.0,38,0.00,OVC,,0.00,85.3,WeatherDisplay:10.37,2013-10-04 13:46:00,
2013-10-04 15:51:00,52.9,28.6,30.42,NNE,22,2.3,2.3,39,0.00,OVC,,0.00,83.2,WeatherDisplay:10.37,2013-10-04 13:51:00,
2013-10-04 15:56:00,52.3,28.1,30.42,ENE,68,2.3,2.3,39,0.00,OVC,,0.00,80.8,WeatherDisplay:10.37,2013-10-04 13:56:00,
2013-10-04 16:01:00,51.8,27.6,30.42,East,90,6.9,6.9,39,0.00,OVC,,0.00,78.5,WeatherDisplay:10.37,2013-10-04 14:01:00,
2013-10-04 16:06:00,51.6,27.4,30.39,North,0,1.2,1.4,39,0.00,OVC,,0.00,76.2,WeatherDisplay:10.37,2013-10-04 14:06:00,
2013-10-04 16:11:00,51.3,27.1,30.39,NNE,22,3.8,3.8,39,0.00,OVC,,0.00,73.9,WeatherDisplay:10.37,2013-10-04 14:11:00,
2013-10-04 16:16:00,51.1,27.0,30.39,SE,135,3.1,3.1,39,0.00,OVC,,0.00,71.6,WeatherDisplay:10.37,2013-10-04 14:16:00,
2013-10-04 16:21:00,50.9,26.8,30.42,SSW,202,2.3,2.3,39,0.00,OVC,,0.00,69.1,WeatherDisplay:10.37,2013-10-04 14:21:00,
2013-10-04 16:26:00,50.7,26.6,30.42,WNW,292,1.2,1.2,39,0.00,OVC,,0.00,66.8,WeatherDisplay:10.37,2013-10-04 14:26:00,
2013-10-04 16:31:00,50.5,26.5,30.42,WSW,248,2.3,2.3,39,0.00,OVC,,0.00,64.3,WeatherDisplay:10.37,2013-10-04 14:31:00,
2013-10-04 16:36:00,50.5,26.5,30.42,North,0,2.3,2.3,39,0.00,OVC,,0.00,61.9,WeatherDisplay:10.37,2013-10-04 14:36:00,
2013-10-04 16:41:00,50.4,26.9,30.42,South,180,2.3,2.3,40,0.00,OVC,,0.00,59.4,WeatherDisplay:10.37,2013-10-04 14:41:00,
2013-10-04 16:46:00,50.2,26.8,30.42,WSW,248,1.2,1.2,40,0.00,OVC,,0.00,56.9,WeatherDisplay:10.37,2013-10-04 14:46:00,
2013-10-04 16:51:00,50.2,26.8,30.39,SSE,158,1.2,0.0,40,0.00,OVC,,0.00,54.3,WeatherDisplay:10.37,2013-10-04 14:51:00,
2013-10-04 16:56:00,50.0,26.6,30.39,WNW,292,2.2,2.2,40,0.00,OVC,,0.00,51.8,WeatherDisplay:10.37,2013-10-04 14:56:00,
2013-10-04 17:01:00,50.0,26.6,30.39,East,90,2.6,2.6,40,0.00,OVC,,0.00,49.2,WeatherDisplay:10.37,2013-10-04 15:01:00,
2013-10-04 17:06:00,49.8,27.0,30.39,ENE,68,0.0,0.0,41,0.00,OVC,,0.00,46.7,WeatherDisplay:10.37,2013-10-04 15:06:00,
2013-10-04 17:11:00,49.6,26.9,30.39,SSW,202,3.5,3.5,41,0.00,OVC,,0.00,44.1,WeatherDisplay:10.37,2013-10-04 15:11:00,
2013-10-04 17:16:00,49.5,26.7,30.39,NNE,22,1.2,0.0,41,0.00,OVC,,0.00,41.4,WeatherDisplay:10.37,2013-10-04 15:16:00,
2013-10-04 17:17:00,49.5,26.7,30.39,SSW,202,0.0,0.0,41,0.00,OVC,,0.00,40.9,WeatherDisplay:10.37,2013-10-04 15:17:00,
2013-10-04 17:22:00,49.1,26.4,30.42,SSW,202,1.2,1.2,41,0.00,OVC,,0.00,38.3,WeatherDisplay:10.37,2013-10-04 15:22:00,
2013-10-04 17:27:00,48.9,26.8,30.42,SSW,202,1.2,0.0,42,0.00,OVC,,0.00,35.6,WeatherDisplay:10.37,2013-10-04 15:27:00,
2013-10-04 17:32:00,48.6,26.5,30.42,West,270,3.5,3.5,42,0.00,OVC,,0.00,33.0,WeatherDisplay:10.37,2013-10-04 15:32:00,
2013-10-04 17:37:00,48.4,26.3,30.39,ESE,112,1.2,0.0,42,0.00,OVC,,0.00,30.4,WeatherDisplay:10.37,2013-10-04 15:37:00,
2013-10-04 17:42:00,48.0,26.0,30.39,ESE,112,0.0,0.0,42,0.00,OVC,,0.00,27.7,WeatherDisplay:10.37,2013-10-04 15:42:00,
2013-10-04 17:47:00,47.8,26.4,30.39,ESE,112,0.0,0.0,43,0.00,OVC,,0.00,25.1,WeatherDisplay:10.37,2013-10-04 15:47:00,
2013-10-04 17:52:00,47.5,26.1,30.42,ENE,68,1.2,0.0,43,0.00,OVC,,0.00,22.4,WeatherDisplay:10.37,2013-10-04 15:52:00,
2013-10-04 17:57:00,47.3,26.5,30.42,ESE,112,1.2,0.0,44,0.00,OVC,,0.00,19.8,WeatherDisplay:10.37,2013-10-04 15:57:00,
2013-10-04 18:02:00,46.9,26.1,30.42,NNW,338,0.0,0.0,44,0.00,OVC,,0.00,17.2,WeatherDisplay:10.37,2013-10-04 16:02:00,
2013-10-04 18:07:00,46.6,25.8,30.42,West,270,1.2,0.0,44,0.00,OVC,,0.00,14.5,WeatherDisplay:10.37,2013-10-04 16:07:00,
2013-10-04 18:12:00,46.2,26.0,30.42,NNW,338,0.0,0.0,45,0.00,OVC,,0.00,11.9,WeatherDisplay:10.37,2013-10-04 16:12:00,
2013-10-04 18:17:00,45.9,25.7,30.42,WNW,292,0.0,0.0,45,0.00,OVC,,0.00,9.2,WeatherDisplay:10.37,2013-10-04 16:17:00,
2013-10-04 18:22:00,45.3,25.2,30.39,WNW,292,0.0,0.0,45,0.00,OVC,,0.00,6.8,WeatherDisplay:10.37,2013-10-04 16:22:00,
2013-10-04 18:27:00,45.0,25.4,30.39,ESE,112,0.0,0.0,46,0.00,OVC,,0.00,4.1,WeatherDisplay:10.37,2013-10-04 16:27:00,
2013-10-04 18:32:00,44.6,25.1,30.39,ESE,112,0.0,0.0,46,0.00,OVC,,0.00,1.5,WeatherDisplay:10.37,2013-10-04 16:32:00,
2013-10-04 18:37:00,44.1,25.6,30.42,WNW,292,0.0,0.0,48,0.00,OVC,,0.00,0.5,WeatherDisplay:10.37,2013-10-04 16:37:00,
2013-10-04 18:42:00,43.5,25.1,30.42,WNW,292,0.0,0.0,48,0.00,OVC,,0.00,0.5,WeatherDisplay:10.37,2013-10-04 16:42:00,
2013-10-04 18:47:00,43.2,24.8,30.42,WNW,292,0.0,0.0,48,0.00,CLR,,0.00,0.0,WeatherDisplay:10.37,2013-10-04 16:47:00,
2013-10-04 18:52:00,42.6,24.8,30.42,WNW,292,0.0,0.0,49,0.00,CLR,,0.00,0.0,WeatherDisplay:10.37,2013-10-04 16:52:00,
2013-10-04 18:57:00,42.3,24.9,30.42,WNW,292,0.0,0.0,50,0.00,CLR,,0.00,0.0,WeatherDisplay:10.37,2013-10-04 16:57:00,
2013-10-04 19:02:00,41.9,24.6,30.42,WNW,292,0.0,0.0,50,0.00,CLR,,0.00,0.0,WeatherDisplay:10.37,2013-10-04 17:02:00,
2013-10-04 19:07:00,41.4,24.6,30.42,WNW,292,0.0,0.0,51,0.00,CLR,,0.00,0.0,WeatherDisplay:10.37,2013-10-04 17:07:00,
2013-10-04 19:12:00,41.0,24.2,30.42,WNW,292,0.0,0.0,51,0.00,CLR,,0.00,0.0,WeatherDisplay:10.37,2013-10-04 17:12:00,
2013-10-04 19:17:00,40.6,23.9,30.42,WNW,292,0.0,0.0,51,0.00,CLR,,0.00,0.0,WeatherDisplay:10.37,2013-10-04 17:17:00,
2013-10-04 19:22:00,40.1,23.9,30.42,WNW,292,0.0,0.0,52,0.00,CLR,,0.00,0.0,WeatherDisplay:10.37,2013-10-04 17:22:00,
2013-10-04 19:27:00,39.7,24.0,30.42,WNW,292,0.0,0.0,53,0.00,CLR,,0.00,0.0,WeatherDisplay:10.37,2013-10-04 17:27:00,
2013-10-04 19:32:00,39.4,23.7,30.42,WNW,292,0.0,0.0,53,0.00,CLR,,0.00,0.0,WeatherDisplay:10.37,2013-10-04 17:32:00,
2013-10-04 19:37:00,39.0,23.8,30.42,WNW,292,0.0,0.0,54,0.00,CLR,,0.00,0.0,WeatherDisplay:10.37,2013-10-04 17:37:00,
2013-10-04 20:02:00,37.6,23.7,30.42,WNW,292,0.0,0.0,57,0.00,CLR,,0.00,0.0,WeatherDisplay:10.37,2013-10-04 18:02:00,
2013-10-04 20:07:00,37.4,23.5,30.42,WNW,292,0.0,0.0,57,0.00,CLR,,0.00,0.0,WeatherDisplay:10.37,2013-10-04 18:07:00,
2013-10-04 20:12:00,37.0,23.6,30.42,WNW,292,0.0,0.0,58,0.00,CLR,,0.00,0.0,WeatherDisplay:10.37,2013-10-04 18:12:00,
2013-10-04 20:50:00,35.6,23.5,30.42,WNW,292,0.0,0.0,61,0.00,CLR,,0.00,0.0,WeatherDisplay:10.37,2013-10-04 18:50:00,
2013-10-04 20:55:00,35.4,23.7,30.42,WNW,292,0.0,0.0,62,0.00,CLR,,0.00,0.0,WeatherDisplay:10.37,2013-10-04 18:55:00,
2013-10-04 21:00:00,35.2,23.5,30.42,WNW,292,0.0,0.0,62,0.00,CLR,,0.00,0.0,WeatherDisplay:10.37,2013-10-04 19:00:00,
2013-10-04 21:05:00,35.1,23.3,30.42,WNW,292,0.0,0.0,62,0.00,CLR,,0.00,0.0,WeatherDisplay:10.37,2013-10-04 19:05:00,
2013-10-04 21:10:00,34.9,23.6,30.42,WNW,292,0.0,0.0,63,0.00,CLR,,0.00,0.0,WeatherDisplay:10.37,2013-10-04 19:10:00,
2013-10-04 21:15:00,34.9,23.6,30.42,WNW,292,0.0,0.0,63,0.00,CLR,,0.00,0.0,WeatherDisplay:10.37,2013-10-04 19:15:00,
2013-10-04 21:20:00,34.7,23.4,30.42,WNW,292,0.0,0.0,63,0.00,CLR,,0.00,0.0,WeatherDisplay:10.37,2013-10-04 19:20:00,
2013-10-04 21:25:00,34.5,23.6,30.42,WNW,292,0.0,0.0,64,0.00,CLR,,0.00,0.0,WeatherDisplay:10.37,2013-10-04 19:25:00,
2013-10-04 21:30:00,34.3,23.4,30.42,WNW,292,0.0,0.0,64,0.00,CLR,,0.00,0.0,WeatherDisplay:10.37,2013-10-04 19:30:00,
2013-10-04 21:35:00,34.2,23.2,30.44,WNW,292,0.0,0.0,64,0.00,CLR,,0.00,0.0,WeatherDisplay:10.37,2013-10-04 19:35:00,
2013-10-04 21:40:00,34.2,23.6,30.44,WNW,292,0.0,0.0,65,0.00,CLR,,0.00,0.0,WeatherDisplay:10.37,2013-10-04 19:40:00,
2013-10-04 21:45:00,34.0,23.4,30.44,WNW,292,0.0,0.0,65,0.00,CLR,,0.00,0.0,WeatherDisplay:10.37,2013-10-04 19:45:00,
2013-10-04 21:50:00,33.8,23.3,30.39,WNW,292,0.0,0.0,65,0.00,CLR,,0.00,0.0,WeatherDisplay:10.37,2013-10-04 19:50:00,
2013-10-04 21:55:00,33.8,23.3,30.39,WNW,292,0.0,0.0,65,0.00,CLR,,0.00,0.0,WeatherDisplay:10.37,2013-10-04 19:55:00,
2013-10-04 22:00:00,33.6,23.5,30.39,WNW,292,0.0,0.0,66,0.00,CLR,,0.00,0.0,WeatherDisplay:10.37,2013-10-04 20:00:00,
2013-10-04 22:05:00,33.4,23.3,30.39,WNW,292,0.0,0.0,66,0.00,CLR,,0.00,0.0,WeatherDisplay:10.37,2013-10-04 20:05:00,
2013-10-04 22:10:00,33.4,23.7,30.39,WNW,292,0.0,0.0,67,0.00,CLR,,0.00,0.0,WeatherDisplay:10.37,2013-10-04 20:10:00,
2013-10-04 22:15:00,33.3,23.8,30.39,WNW,292,0.0,0.0,68,0.00,CLR,,0.00,0.0,WeatherDisplay:10.37,2013-10-04 20:15:00,
2013-10-04 22:20:00,33.3,23.5,30.42,WNW,292,0.0,0.0,67,0.00,CLR,,0.00,0.0,WeatherDisplay:10.37,2013-10-04 20:20:00,
2013-10-04 22:25:00,33.1,23.7,30.42,WNW,292,0.0,0.0,68,0.00,CLR,,0.00,0.0,WeatherDisplay:10.37,2013-10-04 20:25:00,
2013-10-04 22:30:00,33.1,23.7,30.42,WNW,292,0.0,0.0,68,0.00,CLR,,0.00,0.0,WeatherDisplay:10.37,2013-10-04 20:30:00,
2013-10-04 22:35:00,32.9,23.5,30.39,WNW,292,0.0,0.0,68,0.00,CLR,,0.00,0.0,WeatherDisplay:10.37,2013-10-04 20:35:00,
2013-10-04 22:40:00,32.9,23.5,30.39,WNW,292,0.0,0.0,68,0.00,CLR,,0.00,0.0,WeatherDisplay:10.37,2013-10-04 20:40:00,
2013-10-04 22:45:00,32.7,23.3,30.39,WNW,292,0.0,0.0,68,0.00,CLR,,0.00,0.0,WeatherDisplay:10.37,2013-10-04 20:45:00,
2013-10-04 22:50:00,32.7,23.3,30.42,WNW,292,0.0,0.0,68,0.00,CLR,,0.00,0.0,WeatherDisplay:10.37,2013-10-04 20:50:00,
2013-10-04 22:55:00,32.7,23.7,30.42,WNW,292,0.0,0.0,69,0.00,CLR,,0.00,0.0,WeatherDisplay:10.37,2013-10-04 20:55:00,
2013-10-04 23:00:00,32.7,23.7,30.42,WNW,292,0.0,0.0,69,0.00,CLR,,0.00,0.0,WeatherDisplay:10.37,2013-10-04 21:00:00,
2013-10-04 23:05:00,32.5,23.5,30.42,WNW,292,0.0,0.0,69,0.00,CLR,,0.00,0.0,WeatherDisplay:10.37,2013-10-04 21:05:00,
2013-10-04 23:10:00,32.5,23.5,30.42,WNW,292,0.0,0.0,69,0.00,CLR,,0.00,0.0,WeatherDisplay:10.37,2013-10-04 21:10:00,
2013-10-04 23:15:00,32.5,23.5,30.42,WNW,292,0.0,0.0,69,0.00,CLR,,0.00,0.0,WeatherDisplay:10.37,2013-10-04 21:15:00,
2013-10-04 23:20:00,32.4,23.7,30.39,WNW,292,0.0,0.0,70,0.00,CLR,,0.00,0.0,WeatherDisplay:10.37,2013-10-04 21:20:00,
2013-10-04 23:25:00,32.4,23.7,30.39,WNW,292,0.0,0.0,70,0.00,CLR,,0.00,0.0,WeatherDisplay:10.37,2013-10-04 21:25:00,
2013-10-04 23:30:00,32.2,23.5,30.39,WNW,292,0.0,0.0,70,0.00,CLR,,0.00,0.0,WeatherDisplay:10.37,2013-10-04 21:30:00,
2013-10-04 23:35:00,32.2,23.5,30.42,WNW,292,0.0,0.0,70,0.00,CLR,,0.00,0.0,WeatherDisplay:10.37,2013-10-04 21:35:00,
2013-10-04 23:40:00,32.2,23.5,30.42,WNW,292,0.0,0.0,70,0.00,CLR,,0.00,0.0,WeatherDisplay:10.37,2013-10-04 21:40:00,
2013-10-04 23:45:00,32.0,23.3,30.42,WNW,292,0.0,0.0,70,0.00,CLR,,0.00,0.0,WeatherDisplay:10.37,2013-10-04 21:45:00,
2013-10-04 23:50:00,32.0,23.3,30.39,WNW,292,0.0,0.0,70,0.00,CLR,,0.00,0.0,WeatherDisplay:10.37,2013-10-04 21:50:00,
2013-10-04 23:55:00,31.8,23.1,30.39,WNW,292,0.0,0.0,70,0.00,CLR,,0.00,0.0,WeatherDisplay:10.37,2013-10-04 21:55:00,